Santo Antonio de Posse, Brazil
Current Conditions -  °F | °C
As of 8:00 PM on Friday 31 Oct 2014 (Local Time) from SBKP Reporting Station
Scattered Clouds Scattered Clouds  
Wind Chill: 86°   Ceiling: Unl
Heat Index: 86°   Visibility: 6mi
Dew Point: 59°   Wind: 3mph
Humidity: 40%   Direction: 260°W
Pressure: 29.94"   Gusts: NA
Location:  22.61°S, 46.92°W
Report Text: SBKP 312200Z 26003KT 9999 SCT045 30/15 Q1014
Loading
Personal Weather Stations






























Interactive Weather Map
Tropical Storm Tracking
New forecast layout! Learn more

10-Day Weather Forecast

Advertisements
Track Severe Weather on mobile